Adkins, Texas
Current Conditions -  °F | °C
As of 5:58 AM on Monday 26 Jan 2015 (Local Time) from KRND Reporting Station
Clear Clear  
Wind Chill: 39°   Ceiling: Unl
Heat Index: 42°   Visibility: 10mi
Dew Point: 33°   Wind: 5mph
Humidity: 69%   Direction: 260°W
Pressure: 30.24"   Gusts: NA
Location:  29.39°N, 98.24°W
Report Text: KRND 261158Z AUTO 26004KT 10SM CLR 06/00 A3024 RMK AO2 SLP240 T00560004 10076 20047 50002 $
Loading
Personal Weather Stations






























Interactive Weather Map New forecast layout! Learn more

10-Day Weather Forecast

Advertisements
Track Severe Weather on mobile